createdAt,value
2023-04-28T00:00:17.312Z,9.70
2023-04-28T00:02:48.278Z,9.70
2023-04-28T00:05:17.472Z,9.60
2023-04-28T00:07:47.852Z,9.50
2023-04-28T00:10:16.759Z,9.50
2023-04-28T00:12:45.648Z,9.50
2023-04-28T00:15:14.677Z,9.50
2023-04-28T00:17:43.539Z,9.60
2023-04-28T00:20:13.629Z,9.40
2023-04-28T00:22:42.321Z,9.30
2023-04-28T00:25:12.681Z,9.20
2023-04-28T00:27:41.365Z,9.20
2023-04-28T00:30:11.701Z,9.20
2023-04-28T00:32:40.601Z,9.20
2023-04-28T00:35:10.243Z,9.10
2023-04-28T00:37:39.796Z,9.10
2023-04-28T00:40:12.054Z,9.00
2023-04-28T00:42:41.025Z,9.00
2023-04-28T00:45:10.936Z,8.80
2023-04-28T00:47:40.014Z,8.90
2023-04-28T00:50:10.660Z,8.90
2023-04-28T00:52:40.775Z,8.80
2023-04-28T00:55:11.755Z,8.80
2023-04-28T00:57:40.642Z,8.70
2023-04-28T01:00:10.853Z,8.70
2023-04-28T01:02:39.944Z,8.80
2023-04-28T01:05:10.538Z,8.90
2023-04-28T01:07:39.277Z,8.50
2023-04-28T01:10:09.980Z,8.30
2023-04-28T01:12:40.106Z,8.40
2023-04-28T01:15:17.108Z,8.50
2023-04-28T01:17:46.875Z,8.40
2023-04-28T01:20:16.026Z,8.40
2023-04-28T01:22:44.624Z,8.40
2023-04-28T01:25:14.768Z,8.30
2023-04-28T01:27:43.452Z,8.40
2023-04-28T01:30:12.911Z,8.50
2023-04-28T01:32:41.677Z,8.40
2023-04-28T01:35:11.034Z,8.20
2023-04-28T01:37:39.714Z,8.20
2023-04-28T01:40:09.982Z,8.20
2023-04-28T01:42:40.163Z,8.30
2023-04-28T01:45:10.561Z,8.20
2023-04-28T01:47:39.604Z,8.00
2023-04-28T01:50:09.525Z,7.90
2023-04-28T01:52:38.309Z,8.00
2023-04-28T01:55:08.365Z,8.00
2023-04-28T01:57:37.481Z,7.80
2023-04-28T02:00:10.783Z,7.80
2023-04-28T02:02:39.594Z,7.80
2023-04-28T02:05:09.529Z,7.90
2023-04-28T02:07:38.293Z,8.00
2023-04-28T02:10:07.991Z,7.80
2023-04-28T02:12:36.752Z,7.70
2023-04-28T02:15:09.050Z,7.80
2023-04-28T02:17:37.933Z,7.80
2023-04-28T02:20:08.260Z,7.70
2023-04-28T02:22:36.900Z,7.90
2023-04-28T02:25:06.701Z,7.90
2023-04-28T02:27:38.390Z,7.90
2023-04-28T02:30:10.180Z,8.00
2023-04-28T02:32:38.817Z,7.90
2023-04-28T02:35:08.977Z,8.00
2023-04-28T02:37:37.649Z,8.00
2023-04-28T02:40:07.989Z,8.10
2023-04-28T02:42:36.794Z,8.20
2023-04-28T02:45:08.321Z,8.30
2023-04-28T02:47:37.251Z,8.30
2023-04-28T02:50:06.955Z,8.20
2023-04-28T02:52:35.807Z,8.00
2023-04-28T02:55:04.975Z,8.00
2023-04-28T02:57:33.689Z,8.00
2023-04-28T03:00:02.367Z,7.90
2023-04-28T03:02:32.519Z,7.90
2023-04-28T03:05:01.375Z,7.90
2023-04-28T03:07:30.315Z,7.90
2023-04-28T03:09:58.984Z,7.90
2023-04-28T03:12:27.649Z,8.00
2023-04-28T03:14:56.353Z,8.00
2023-04-28T03:17:25.229Z,8.00
2023-04-28T03:19:55.484Z,8.00
2023-04-28T03:22:24.101Z,8.10
2023-04-28T03:24:52.760Z,8.10
2023-04-28T03:27:21.437Z,8.10
2023-04-28T03:29:50.121Z,8.10
2023-04-28T03:32:18.908Z,8.10
2023-04-28T03:34:47.788Z,8.10
2023-04-28T03:37:17.900Z,8.10
2023-04-28T03:39:46.534Z,8.10
2023-04-28T03:42:15.185Z,8.00
2023-04-28T03:44:44.000Z,8.00
2023-04-28T03:47:12.752Z,8.00
2023-04-28T03:49:41.515Z,8.00
2023-04-28T03:52:10.161Z,8.10
2023-04-28T03:54:41.557Z,8.20
2023-04-28T03:57:10.275Z,8.20
2023-04-28T03:59:39.051Z,8.20
2023-04-28T04:02:07.813Z,8.10
2023-04-28T04:04:37.162Z,8.20
2023-04-28T04:07:06.171Z,8.30
2023-04-28T04:09:34.948Z,8.20
2023-04-28T04:12:05.583Z,8.30
2023-04-28T04:14:34.454Z,8.20
2023-04-28T04:17:03.225Z,8.30
2023-04-28T04:19:31.968Z,8.40
2023-04-28T04:22:00.668Z,8.50
2023-04-28T04:24:29.403Z,8.50
2023-04-28T04:26:58.002Z,8.60
2023-04-28T04:29:28.102Z,8.70
2023-04-28T04:31:56.736Z,8.70
2023-04-28T04:34:25.552Z,8.80
2023-04-28T04:36:54.311Z,8.80
2023-04-28T04:39:23.071Z,8.80
2023-04-28T04:41:55.115Z,8.80
2023-04-28T04:44:23.850Z,8.90
2023-04-28T04:46:54.424Z,8.90
2023-04-28T04:49:23.213Z,8.80
2023-04-28T04:51:52.129Z,8.80
2023-04-28T04:54:20.915Z,8.90
2023-04-28T04:56:49.814Z,9.00
2023-04-28T04:59:18.669Z,8.90
2023-04-28T05:01:47.477Z,9.00
2023-04-28T05:04:18.077Z,8.90
2023-04-28T05:06:47.238Z,8.90
2023-04-28T05:09:15.972Z,8.90
2023-04-28T05:11:47.727Z,9.00
2023-04-28T05:14:16.847Z,8.70
2023-04-28T05:16:45.878Z,8.50
2023-04-28T05:19:16.265Z,8.50
2023-04-28T05:21:47.527Z,8.50
2023-04-28T05:24:16.763Z,8.60
2023-04-28T05:26:45.663Z,8.80
2023-04-28T05:29:14.364Z,8.70
2023-04-28T05:31:43.328Z,8.80
2023-04-28T05:34:12.322Z,8.80
2023-04-28T05:36:42.917Z,8.80
2023-04-28T05:39:11.702Z,8.80
2023-04-28T05:41:40.867Z,9.10
2023-04-28T05:44:09.610Z,9.10
2023-04-28T05:46:38.942Z,9.10
2023-04-28T05:49:07.696Z,9.10
2023-04-28T05:51:36.584Z,8.90
2023-04-28T05:54:06.829Z,9.10
2023-04-28T05:56:35.783Z,9.10
2023-04-28T05:59:05.057Z,9.10
2023-04-28T06:01:34.188Z,9.40
2023-04-28T06:04:03.301Z,9.40
2023-04-28T06:06:34.311Z,9.30
2023-04-28T06:09:05.547Z,9.40
2023-04-28T06:11:34.378Z,9.30
2023-04-28T06:14:03.080Z,9.40
2023-04-28T06:16:31.915Z,9.30
2023-04-28T06:19:01.183Z,9.40
2023-04-28T06:21:29.901Z,9.40
2023-04-28T06:23:58.602Z,9.60
2023-04-28T06:26:29.018Z,9.40
2023-04-28T06:28:57.681Z,9.40
2023-04-28T06:31:26.606Z,9.50
2023-04-28T06:33:55.630Z,9.50
2023-04-28T06:36:24.559Z,10.00
2023-04-28T06:38:53.465Z,10.20
2023-04-28T06:41:22.236Z,10.40
2023-04-28T06:43:52.547Z,10.60
2023-04-28T06:46:21.468Z,10.60
2023-04-28T06:48:50.865Z,10.40
2023-04-28T06:51:19.910Z,10.40
2023-04-28T06:53:54.556Z,10.60
2023-04-28T06:56:23.551Z,10.60
2023-04-28T06:58:53.852Z,10.40
2023-04-28T07:01:22.553Z,10.60
2023-04-28T07:03:51.559Z,11.00
2023-04-28T07:06:20.438Z,11.50
2023-04-28T07:08:49.254Z,11.90
2023-04-28T07:11:18.080Z,11.60
2023-04-28T07:13:49.457Z,11.80
2023-04-28T07:16:21.562Z,12.00
2023-04-28T07:18:50.887Z,11.80
2023-04-28T07:21:20.164Z,11.60
2023-04-28T07:23:49.153Z,11.10
2023-04-28T07:26:17.938Z,10.90
2023-04-28T07:28:46.736Z,11.10
2023-04-28T07:31:15.772Z,10.90
2023-04-28T07:33:46.251Z,11.00
2023-04-28T07:36:15.146Z,10.90
2023-04-28T07:38:43.878Z,10.80
2023-04-28T07:41:13.092Z,10.50
2023-04-28T07:43:42.196Z,10.40
2023-04-28T07:46:11.736Z,10.80
2023-04-28T07:48:40.687Z,11.00
2023-04-28T07:51:11.261Z,11.30
2023-04-28T07:53:39.959Z,11.50
2023-04-28T07:56:09.181Z,11.40
2023-04-28T07:58:38.319Z,11.50
2023-04-28T08:01:07.186Z,11.90
2023-04-28T08:03:36.239Z,11.70
2023-04-28T08:06:05.466Z,12.10
2023-04-28T08:08:35.654Z,12.60
2023-04-28T08:11:04.402Z,12.80
2023-04-28T08:13:34.089Z,13.00
2023-04-28T08:16:02.948Z,13.90
2023-04-28T08:18:31.838Z,14.60
2023-04-28T08:21:00.459Z,15.30
2023-04-28T08:23:31.249Z,15.40
2023-04-28T08:26:01.468Z,15.20
2023-04-28T08:28:30.175Z,15.00
2023-04-28T08:30:58.941Z,14.00
2023-04-28T08:33:27.665Z,14.20
2023-04-28T08:35:59.792Z,14.00
2023-04-28T08:38:29.017Z,13.60
2023-04-28T08:40:57.703Z,13.20
2023-04-28T08:43:30.247Z,12.90
2023-04-28T08:46:00.206Z,12.80
2023-04-28T08:48:30.371Z,13.10
2023-04-28T08:51:01.709Z,12.90
2023-04-28T08:53:32.405Z,12.90
2023-04-28T08:56:02.732Z,12.90
2023-04-28T08:58:33.251Z,13.00
2023-04-28T09:01:04.656Z,13.00
2023-04-28T09:03:34.121Z,13.40
2023-04-28T09:06:04.099Z,13.80
2023-04-28T09:08:32.762Z,14.30
2023-04-28T09:11:09.635Z,14.50
2023-04-28T09:13:40.531Z,14.10
2023-04-28T09:16:09.919Z,14.20
2023-04-28T09:18:38.595Z,14.00
2023-04-28T09:21:09.680Z,13.90
2023-04-28T09:23:50.881Z,13.90
2023-04-28T09:26:19.585Z,14.20
2023-04-28T09:28:49.703Z,14.50
2023-04-28T09:31:28.076Z,14.00
2023-04-28T09:34:01.002Z,14.10
2023-04-28T09:36:31.140Z,14.20
2023-04-28T09:39:29.507Z,14.30
2023-04-28T09:42:03.422Z,14.30
2023-04-28T09:44:33.720Z,14.20
2023-04-28T09:47:02.596Z,14.30
2023-04-28T09:49:31.647Z,14.40
2023-04-28T09:52:14.700Z,14.30
2023-04-28T09:54:43.518Z,14.50
2023-04-28T09:57:12.878Z,15.40
2023-04-28T09:59:46.345Z,16.20
2023-04-28T10:02:41.126Z,16.20
2023-04-28T10:05:09.642Z,15.70
2023-04-28T10:07:40.338Z,16.10
2023-04-28T10:10:09.991Z,16.00
2023-04-28T10:12:39.201Z,16.00
2023-04-28T10:15:14.067Z,16.20
2023-04-28T10:17:42.897Z,16.20
2023-04-28T10:20:14.209Z,16.40
2023-04-28T10:23:01.752Z,16.70
2023-04-28T10:25:34.146Z,16.80
2023-04-28T10:28:07.561Z,16.70
2023-04-28T10:30:38.754Z,16.40
2023-04-28T10:33:29.963Z,16.30
2023-04-28T10:35:59.007Z,16.50
2023-04-28T10:38:27.727Z,16.80
2023-04-28T10:41:01.679Z,17.00
2023-04-28T10:43:39.906Z,17.00
2023-04-28T10:46:11.907Z,16.60
2023-04-28T10:49:08.513Z,16.30
2023-04-28T10:51:37.747Z,16.40
2023-04-28T10:54:19.912Z,16.40
2023-04-28T10:57:31.191Z,16.50
2023-04-28T11:00:31.578Z,16.90
2023-04-28T11:03:01.975Z,16.80
2023-04-28T11:05:34.472Z,17.10
2023-04-28T11:08:33.887Z,17.10
2023-04-28T11:11:23.912Z,16.90
2023-04-28T11:13:54.367Z,16.90
2023-04-28T11:16:26.188Z,17.10
2023-04-28T11:19:07.281Z,16.90
2023-04-28T11:21:36.077Z,16.70
2023-04-28T11:24:12.720Z,16.70
2023-04-28T11:26:42.270Z,16.60
2023-04-28T11:29:11.692Z,16.60
2023-04-28T11:31:42.190Z,16.70
2023-04-28T11:34:14.715Z,16.70
2023-04-28T11:36:44.006Z,16.80
2023-04-28T11:39:14.667Z,16.90
2023-04-28T11:41:46.319Z,16.90
2023-04-28T11:44:16.871Z,17.00
2023-04-28T11:46:53.843Z,17.20
2023-04-28T11:49:25.641Z,17.30
2023-04-28T11:51:54.910Z,17.20
2023-04-28T11:54:25.795Z,16.90
2023-04-28T11:56:56.076Z,16.80
2023-04-28T11:59:30.915Z,16.90
2023-04-28T12:02:02.919Z,16.60
2023-04-28T12:04:36.636Z,16.60
2023-04-28T12:07:07.918Z,16.60
2023-04-28T12:09:37.152Z,16.70
2023-04-28T12:12:08.296Z,16.80
2023-04-28T12:14:59.660Z,16.90
2023-04-28T12:17:30.134Z,17.00
2023-04-28T12:20:02.617Z,17.10
2023-04-28T12:22:31.688Z,16.90
2023-04-28T12:25:09.026Z,16.80
2023-04-28T12:27:40.735Z,16.90
2023-04-28T12:30:31.600Z,17.10
2023-04-28T12:33:00.710Z,17.30
2023-04-28T12:35:32.750Z,17.30
2023-04-28T12:38:01.542Z,17.10
2023-04-28T12:40:30.191Z,17.30
2023-04-28T12:42:58.843Z,17.30
2023-04-28T12:45:27.771Z,17.40
2023-04-28T12:47:57.080Z,17.50
2023-04-28T12:50:27.172Z,17.40
2023-04-28T12:52:58.003Z,17.10
2023-04-28T12:55:27.209Z,17.00
2023-04-28T12:57:56.826Z,17.10
2023-04-28T13:00:25.608Z,17.10
2023-04-28T13:02:54.485Z,17.10
2023-04-28T13:05:23.372Z,17.20
2023-04-28T13:07:52.589Z,17.20
2023-04-28T13:10:23.817Z,17.10
2023-04-28T13:12:52.537Z,17.20
2023-04-28T13:15:21.442Z,17.10
2023-04-28T13:17:50.342Z,17.10
2023-04-28T13:20:19.200Z,17.10
2023-04-28T13:22:47.909Z,17.00
2023-04-28T13:25:16.744Z,17.10
2023-04-28T13:27:46.890Z,17.10
2023-04-28T13:30:15.951Z,17.10
2023-04-28T13:32:44.571Z,17.00
2023-04-28T13:35:13.262Z,16.90
2023-04-28T13:37:45.851Z,16.90
2023-04-28T13:40:14.853Z,16.90
2023-04-28T13:42:43.811Z,17.00
2023-04-28T13:45:16.195Z,16.90
2023-04-28T13:47:46.247Z,16.90
2023-04-28T13:50:14.998Z,16.80
2023-04-28T13:52:43.701Z,16.90
2023-04-28T13:55:12.363Z,16.90
2023-04-28T13:57:41.159Z,16.90
2023-04-28T14:00:12.605Z,16.90
2023-04-28T14:02:43.564Z,17.00
2023-04-28T14:05:12.747Z,16.90
2023-04-28T14:07:41.496Z,16.90
2023-04-28T14:10:11.986Z,16.90
2023-04-28T14:12:41.012Z,17.00
2023-04-28T14:15:10.662Z,16.80
2023-04-28T14:17:39.388Z,16.70
2023-04-28T14:20:11.770Z,16.50
2023-04-28T14:22:40.612Z,16.50
2023-04-28T14:25:10.836Z,16.40
2023-04-28T14:27:39.521Z,16.40
2023-04-28T14:30:10.070Z,16.40
2023-04-28T14:32:40.031Z,16.60
2023-04-28T14:35:14.234Z,16.60
2023-04-28T14:37:43.503Z,16.50
2023-04-28T14:40:12.771Z,16.60
2023-04-28T14:42:41.473Z,16.50
2023-04-28T14:45:12.094Z,16.40
2023-04-28T14:47:42.192Z,16.30
2023-04-28T14:50:14.040Z,16.30
2023-04-28T14:52:43.149Z,16.30
2023-04-28T14:55:12.393Z,16.30
2023-04-28T14:57:42.145Z,16.40
2023-04-28T15:00:12.511Z,16.40
2023-04-28T15:02:41.447Z,16.30
2023-04-28T15:05:12.725Z,16.30
2023-04-28T15:07:42.007Z,16.20
2023-04-28T15:10:11.194Z,16.30
2023-04-28T15:12:40.216Z,16.30
2023-04-28T15:15:10.596Z,16.30
2023-04-28T15:17:39.320Z,16.30
2023-04-28T15:20:09.708Z,16.30
2023-04-28T15:22:39.764Z,16.20
2023-04-28T15:25:09.307Z,16.20
2023-04-28T15:27:38.119Z,16.20
2023-04-28T15:30:08.717Z,16.20
2023-04-28T15:32:38.264Z,16.10
2023-04-28T15:35:08.069Z,16.10
2023-04-28T15:37:56.805Z,16.00
2023-04-28T15:40:25.416Z,16.00
2023-04-28T15:42:54.093Z,16.00
2023-04-28T15:45:23.957Z,16.00
2023-04-28T15:47:54.992Z,16.10
2023-04-28T15:50:24.251Z,16.10
2023-04-28T15:52:54.727Z,16.20
2023-04-28T15:55:25.140Z,16.10
2023-04-28T15:57:53.785Z,16.10
2023-04-28T16:00:22.991Z,16.00
2023-04-28T16:02:52.837Z,16.00
2023-04-28T16:05:21.873Z,16.00
2023-04-28T16:07:52.679Z,16.00
2023-04-28T16:10:22.884Z,16.10
2023-04-28T16:12:51.742Z,16.10
2023-04-28T16:15:20.383Z,16.10
2023-04-28T16:17:49.293Z,16.20
2023-04-28T16:20:18.178Z,16.10
2023-04-28T16:22:47.793Z,16.10
2023-04-28T16:25:16.524Z,16.00
2023-04-28T16:27:46.695Z,16.10
2023-04-28T16:30:15.664Z,16.10
2023-04-28T16:32:44.653Z,16.20
2023-04-28T16:35:14.960Z,16.10
2023-04-28T16:37:44.675Z,16.10
2023-04-28T16:40:15.224Z,16.10
2023-04-28T16:42:46.225Z,16.10
2023-04-28T16:45:16.623Z,16.10
2023-04-28T16:47:46.434Z,16.30
2023-04-28T16:50:15.877Z,16.20
2023-04-28T16:52:45.037Z,16.20
2023-04-28T16:55:13.847Z,16.10
2023-04-28T16:57:43.010Z,16.10
2023-04-28T17:00:15.197Z,16.00
2023-04-28T17:02:44.269Z,16.00
2023-04-28T17:05:13.162Z,16.00
2023-04-28T17:07:42.022Z,15.90
2023-04-28T17:10:11.872Z,15.90
2023-04-28T17:12:41.130Z,15.90
2023-04-28T17:15:14.862Z,15.80
2023-04-28T17:17:45.069Z,15.90
2023-04-28T17:20:16.925Z,15.90
2023-04-28T17:22:45.629Z,16.00
2023-04-28T17:25:16.090Z,15.90
2023-04-28T17:27:45.105Z,15.90
2023-04-28T17:30:14.550Z,15.90
2023-04-28T17:32:44.920Z,15.90
2023-04-28T17:35:13.622Z,16.00
2023-04-28T17:37:42.233Z,15.90
2023-04-28T17:40:12.694Z,15.90
2023-04-28T17:42:41.452Z,16.00
2023-04-28T17:45:12.298Z,16.00
2023-04-28T17:47:40.972Z,16.00
2023-04-28T17:50:12.176Z,15.90
2023-04-28T17:52:43.453Z,15.80
2023-04-28T17:55:13.167Z,15.80
2023-04-28T17:57:41.948Z,15.80
2023-04-28T18:00:13.298Z,15.70
2023-04-28T18:02:42.238Z,15.60
2023-04-28T18:05:12.579Z,15.60
2023-04-28T18:07:41.753Z,15.50
2023-04-28T18:10:11.200Z,15.40
2023-04-28T18:12:39.840Z,15.50
2023-04-28T18:15:10.002Z,15.40
2023-04-28T18:17:39.284Z,15.20
2023-04-28T18:20:10.039Z,15.20
2023-04-28T18:22:41.113Z,15.10
2023-04-28T18:25:11.498Z,15.00
2023-04-28T18:27:40.098Z,15.00
2023-04-28T18:30:11.555Z,15.00
2023-04-28T18:32:40.763Z,15.00
2023-04-28T18:35:10.401Z,14.90
2023-04-28T18:37:41.144Z,14.90
2023-04-28T18:40:10.457Z,14.90
2023-04-28T18:42:39.284Z,14.90
2023-04-28T18:47:39.196Z,14.70
2023-04-28T18:50:09.643Z,14.80
2023-04-28T18:52:39.858Z,14.60
2023-04-28T18:55:09.486Z,14.50
2023-04-28T18:57:38.520Z,14.50
2023-04-28T19:00:09.819Z,14.60
2023-04-28T19:02:38.798Z,14.60
2023-04-28T19:05:09.311Z,14.60
2023-04-28T19:07:39.756Z,14.60
2023-04-28T19:10:09.877Z,14.50
2023-04-28T19:12:38.740Z,14.60
2023-04-28T19:15:08.586Z,14.60
2023-04-28T19:17:37.338Z,14.50
2023-04-28T19:20:07.610Z,14.40
2023-04-28T19:22:41.115Z,14.30
2023-04-28T19:25:10.596Z,14.20
2023-04-28T19:27:41.452Z,14.30
2023-04-28T19:30:13.405Z,14.30
2023-04-28T19:32:43.440Z,14.20
2023-04-28T19:35:12.398Z,14.10
2023-04-28T19:37:43.114Z,14.10
2023-04-28T19:40:13.641Z,14.10
2023-04-28T19:42:42.319Z,14.00
2023-04-28T19:45:12.189Z,14.00
2023-04-28T19:47:41.091Z,14.00
2023-04-28T19:50:11.674Z,13.90
2023-04-28T19:52:41.867Z,14.00
2023-04-28T19:55:11.537Z,13.90
2023-04-28T19:57:41.031Z,13.90
2023-04-28T20:00:11.661Z,13.80
2023-04-28T20:02:40.781Z,13.80
2023-04-28T20:05:10.388Z,13.80
2023-04-28T20:07:43.042Z,13.80
2023-04-28T20:10:13.479Z,13.80
2023-04-28T20:12:42.791Z,13.90
2023-04-28T20:15:12.795Z,13.90
2023-04-28T20:17:41.744Z,13.90
2023-04-28T20:20:12.054Z,13.70
2023-04-28T20:22:42.677Z,13.60
2023-04-28T20:25:13.769Z,13.70
2023-04-28T20:27:44.246Z,13.60
2023-04-28T20:30:13.520Z,13.70
2023-04-28T20:32:42.436Z,13.70
2023-04-28T20:35:12.086Z,13.70
2023-04-28T20:37:42.499Z,13.60
2023-04-28T20:40:12.227Z,13.80
2023-04-28T20:42:40.942Z,13.80
2023-04-28T20:45:11.504Z,13.70
2023-04-28T20:47:40.190Z,13.70
2023-04-28T20:50:11.604Z,13.70
2023-04-28T20:52:41.920Z,13.70
2023-04-28T20:55:12.401Z,13.60
2023-04-28T20:57:41.105Z,13.50
2023-04-28T21:00:11.666Z,13.50
2023-04-28T21:02:40.685Z,13.50
2023-04-28T21:05:12.344Z,13.50
2023-04-28T21:07:42.625Z,13.40
2023-04-28T21:10:11.859Z,13.30
2023-04-28T21:12:41.513Z,13.30
2023-04-28T21:15:10.860Z,13.20
2023-04-28T21:17:39.691Z,13.20
2023-04-28T21:20:09.714Z,13.20
2023-04-28T21:22:38.368Z,13.20
2023-04-28T21:25:09.792Z,13.10
2023-04-28T21:27:38.418Z,13.10
2023-04-28T21:30:09.831Z,13.10
2023-04-28T21:32:38.926Z,13.10
2023-04-28T21:35:08.858Z,13.00
2023-04-28T21:37:37.726Z,13.00
2023-04-28T21:40:09.787Z,13.00
2023-04-28T21:42:38.523Z,13.10
2023-04-28T21:45:09.664Z,13.10
2023-04-28T21:47:41.482Z,13.20
2023-04-28T21:50:12.635Z,13.30
2023-04-28T21:52:41.432Z,13.20
2023-04-28T21:55:11.948Z,13.20
2023-04-28T21:57:40.612Z,13.10
2023-04-28T22:00:12.746Z,13.10
2023-04-28T22:02:42.920Z,13.00
2023-04-28T22:05:12.210Z,13.00
2023-04-28T22:07:40.925Z,13.00
2023-04-28T22:10:13.853Z,13.10
2023-04-28T22:12:42.541Z,13.10
2023-04-28T22:15:12.353Z,13.20
2023-04-28T22:17:41.130Z,13.20
2023-04-28T22:20:11.365Z,13.10
2023-04-28T22:22:40.096Z,13.00
2023-04-28T22:25:11.678Z,13.00
2023-04-28T22:27:40.634Z,13.00
2023-04-28T22:30:10.921Z,13.00
2023-04-28T22:32:39.743Z,13.00
2023-04-28T22:35:10.057Z,13.00
2023-04-28T22:37:39.133Z,13.00
2023-04-28T22:40:11.988Z,13.00
2023-04-28T22:42:42.317Z,12.90
2023-04-28T22:45:12.564Z,12.90
2023-04-28T22:47:43.057Z,12.80
2023-04-28T22:50:12.917Z,12.70
2023-04-28T22:52:41.906Z,12.90
2023-04-28T22:55:13.264Z,12.90
2023-04-28T22:57:42.443Z,12.90
2023-04-28T23:00:12.935Z,12.80
2023-04-28T23:02:42.414Z,12.90
2023-04-28T23:05:11.603Z,12.80
2023-04-28T23:07:40.407Z,12.80
2023-04-28T23:10:14.322Z,12.70
2023-04-28T23:12:43.987Z,12.70
2023-04-28T23:15:13.032Z,12.70
2023-04-28T23:17:42.694Z,12.70
2023-04-28T23:20:12.963Z,12.70
2023-04-28T23:22:41.578Z,12.70
2023-04-28T23:25:12.523Z,12.70
2023-04-28T23:27:41.397Z,12.80
2023-04-28T23:30:11.826Z,12.70
2023-04-28T23:32:40.719Z,12.60
2023-04-28T23:35:10.341Z,12.60
2023-04-28T23:37:39.086Z,12.70
2023-04-28T23:40:11.814Z,12.70
2023-04-28T23:42:41.193Z,12.60
2023-04-28T23:45:13.020Z,12.50
2023-04-28T23:47:42.397Z,12.50
2023-04-28T23:50:12.533Z,12.50
2023-04-28T23:52:41.410Z,12.40
2023-04-28T23:55:13.140Z,12.50
2023-04-28T23:57:41.958Z,12.50
